createdAt,value
2022-12-25T00:00:22.290Z,8.30
2022-12-25T00:02:50.572Z,8.30
2022-12-25T00:05:18.910Z,8.30
2022-12-25T00:07:48.452Z,8.40
2022-12-25T00:10:16.442Z,8.50
2022-12-25T00:12:44.509Z,8.60
2022-12-25T00:15:12.780Z,8.60
2022-12-25T00:17:40.705Z,8.70
2022-12-25T00:20:09.948Z,8.70
2022-12-25T00:22:38.007Z,8.70
2022-12-25T00:25:08.101Z,8.80
2022-12-25T00:27:37.748Z,8.70
2022-12-25T00:30:06.978Z,8.70
2022-12-25T00:32:36.382Z,8.70
2022-12-25T00:35:04.640Z,8.60
2022-12-25T00:37:32.563Z,8.70
2022-12-25T00:40:00.642Z,8.60
2022-12-25T00:42:30.041Z,8.70
2022-12-25T00:44:58.067Z,8.70
2022-12-25T00:47:26.324Z,8.60
2022-12-25T00:49:54.463Z,8.60
2022-12-25T00:52:22.469Z,8.60
2022-12-25T00:54:50.595Z,8.60
2022-12-25T00:57:19.747Z,8.50
2022-12-25T00:59:49.223Z,8.50
2022-12-25T01:02:26.589Z,8.50
2022-12-25T01:04:56.733Z,8.50
2022-12-25T01:07:26.321Z,8.50
2022-12-25T01:10:11.556Z,8.60
2022-12-25T01:12:42.022Z,8.60
2022-12-25T01:15:13.704Z,8.50
2022-12-25T01:17:41.985Z,8.50
2022-12-25T01:20:10.566Z,8.50
2022-12-25T01:22:38.646Z,8.50
2022-12-25T01:25:07.331Z,8.50
2022-12-25T01:27:35.359Z,8.40
2022-12-25T01:30:03.471Z,8.40
2022-12-25T01:32:32.922Z,8.40
2022-12-25T01:35:00.872Z,8.40
2022-12-25T01:37:28.990Z,8.40
2022-12-25T01:39:57.021Z,8.40
2022-12-25T01:42:25.086Z,8.40
2022-12-25T01:45:34.450Z,8.40
2022-12-25T01:48:10.783Z,8.40
2022-12-25T01:50:44.618Z,8.40
2022-12-25T01:53:13.276Z,8.40
2022-12-25T01:55:43.259Z,8.40
2022-12-25T01:58:11.514Z,8.40
2022-12-25T02:00:39.592Z,8.40
2022-12-25T02:03:09.248Z,8.40
2022-12-25T02:05:37.430Z,8.40
2022-12-25T02:08:10.185Z,8.40
2022-12-25T02:10:39.104Z,8.40
2022-12-25T02:13:07.893Z,8.40
2022-12-25T02:15:43.474Z,8.30
2022-12-25T02:18:22.092Z,8.30
2022-12-25T02:21:09.585Z,8.30
2022-12-25T02:24:10.826Z,8.30
2022-12-25T02:26:59.150Z,8.30
2022-12-25T02:29:34.515Z,8.30
2022-12-25T02:32:08.326Z,8.20
2022-12-25T02:34:45.124Z,8.30
2022-12-25T02:37:18.606Z,8.20
2022-12-25T02:39:57.891Z,8.20
2022-12-25T02:42:54.396Z,8.10
2022-12-25T02:45:48.600Z,8.20
2022-12-25T02:48:35.583Z,8.10
2022-12-25T02:51:24.499Z,8.10
2022-12-25T02:54:13.226Z,8.10
2022-12-25T02:57:00.538Z,8.20
2022-12-25T02:59:48.841Z,8.10
2022-12-25T03:02:37.159Z,8.10
2022-12-25T03:05:25.988Z,8.20
2022-12-25T03:07:54.742Z,8.20
2022-12-25T03:10:41.337Z,8.20
2022-12-25T03:13:13.405Z,8.20
2022-12-25T03:15:59.294Z,8.20
2022-12-25T03:18:32.098Z,8.20
2022-12-25T03:21:18.050Z,8.20
2022-12-25T03:24:13.271Z,8.20
2022-12-25T03:26:56.664Z,8.20
2022-12-25T03:29:43.004Z,8.20
2022-12-25T03:32:20.511Z,8.20
2022-12-25T03:35:17.106Z,8.20
2022-12-25T03:38:16.719Z,8.10
2022-12-25T03:41:13.612Z,8.20
2022-12-25T03:44:13.885Z,8.20
2022-12-25T03:47:05.497Z,8.20
2022-12-25T03:49:57.078Z,8.20
2022-12-25T03:52:47.516Z,8.20
2022-12-25T03:55:34.403Z,8.20
2022-12-25T03:58:20.179Z,8.20
2022-12-25T04:01:05.524Z,8.20
2022-12-25T04:03:51.051Z,8.20
2022-12-25T04:06:36.168Z,8.20
2022-12-25T04:09:23.006Z,8.20
2022-12-25T04:12:08.239Z,8.20
2022-12-25T04:14:53.480Z,8.20
2022-12-25T04:17:53.642Z,8.10
2022-12-25T04:20:39.099Z,8.10
2022-12-25T04:23:24.586Z,8.10
2022-12-25T04:26:11.500Z,8.10
2022-12-25T04:28:56.982Z,8.10
2022-12-25T04:31:42.386Z,8.00
2022-12-25T04:34:27.629Z,8.10
2022-12-25T04:36:55.779Z,8.10
2022-12-25T04:39:23.799Z,8.10
2022-12-25T04:41:53.256Z,8.10
2022-12-25T04:44:21.361Z,8.10
2022-12-25T04:46:50.643Z,8.10
2022-12-25T04:49:18.820Z,8.10
2022-12-25T04:51:46.840Z,8.10
2022-12-25T04:54:14.830Z,8.10
2022-12-25T04:56:45.847Z,8.00
2022-12-25T04:59:15.659Z,8.10
2022-12-25T05:01:43.768Z,8.10
2022-12-25T05:04:11.909Z,8.10
2022-12-25T05:06:40.240Z,8.00
2022-12-25T05:09:08.409Z,8.10
2022-12-25T05:11:36.416Z,8.10
2022-12-25T05:14:04.497Z,8.00
2022-12-25T05:16:34.265Z,8.10
2022-12-25T05:19:03.320Z,8.10
2022-12-25T05:21:31.366Z,8.00
2022-12-25T05:23:59.448Z,8.00
2022-12-25T05:26:28.565Z,8.00
2022-12-25T05:28:57.017Z,8.00
2022-12-25T05:31:27.849Z,8.00
2022-12-25T05:33:57.504Z,8.00
2022-12-25T05:36:25.653Z,8.00
2022-12-25T05:38:53.815Z,8.00
2022-12-25T05:41:21.994Z,8.00
2022-12-25T05:43:50.187Z,8.00
2022-12-25T05:46:18.363Z,8.00
2022-12-25T05:48:46.598Z,8.00
2022-12-25T05:51:16.333Z,8.00
2022-12-25T05:53:44.797Z,8.00
2022-12-25T05:56:13.105Z,8.00
2022-12-25T05:58:41.767Z,8.00
2022-12-25T06:01:14.878Z,8.00
2022-12-25T06:03:43.064Z,7.90
2022-12-25T06:06:12.440Z,8.00
2022-12-25T06:08:41.801Z,7.90
2022-12-25T06:11:10.971Z,7.90
2022-12-25T06:13:39.050Z,7.90
2022-12-25T06:16:08.727Z,7.90
2022-12-25T06:18:37.184Z,7.90
2022-12-25T06:21:08.875Z,7.90
2022-12-25T06:23:37.101Z,7.90
2022-12-25T06:26:08.280Z,7.90
2022-12-25T06:28:36.903Z,7.90
2022-12-25T06:31:08.378Z,7.90
2022-12-25T06:33:37.011Z,7.90
2022-12-25T06:36:09.302Z,7.90
2022-12-25T06:38:37.488Z,7.90
2022-12-25T06:41:08.468Z,7.90
2022-12-25T06:43:36.758Z,7.90
2022-12-25T06:46:05.952Z,7.90
2022-12-25T06:48:34.897Z,7.90
2022-12-25T06:51:04.083Z,7.90
2022-12-25T06:53:39.641Z,7.90
2022-12-25T06:56:15.267Z,7.90
2022-12-25T06:58:44.518Z,7.90
2022-12-25T07:01:18.554Z,7.90
2022-12-25T07:03:47.983Z,7.90
2022-12-25T07:06:16.168Z,7.90
2022-12-25T07:08:44.283Z,7.90
2022-12-25T07:11:13.666Z,7.90
2022-12-25T07:13:41.804Z,7.90
2022-12-25T07:16:11.639Z,7.90
2022-12-25T07:18:40.068Z,7.80
2022-12-25T07:21:10.309Z,7.80
2022-12-25T07:23:38.356Z,7.90
2022-12-25T07:26:06.835Z,7.90
2022-12-25T07:28:36.214Z,7.90
2022-12-25T07:31:05.551Z,7.90
2022-12-25T07:33:33.865Z,7.90
2022-12-25T07:36:01.910Z,7.90
2022-12-25T07:38:30.137Z,7.90
2022-12-25T07:40:58.309Z,7.90
2022-12-25T07:43:26.425Z,7.90
2022-12-25T07:46:00.224Z,7.90
2022-12-25T07:48:29.068Z,7.90
2022-12-25T07:50:58.764Z,8.00
2022-12-25T07:53:26.978Z,8.00
2022-12-25T07:55:59.684Z,7.90
2022-12-25T07:58:27.593Z,7.90
2022-12-25T08:00:55.943Z,8.00
2022-12-25T08:03:25.504Z,7.90
2022-12-25T08:05:53.683Z,7.90
2022-12-25T08:08:22.699Z,8.00
2022-12-25T08:10:50.714Z,8.00
2022-12-25T08:13:18.789Z,8.00
2022-12-25T08:15:46.766Z,8.00
2022-12-25T08:18:14.923Z,8.00
2022-12-25T08:20:44.310Z,8.00
2022-12-25T08:23:12.340Z,8.10
2022-12-25T08:25:40.548Z,8.00
2022-12-25T08:28:08.639Z,8.00
2022-12-25T08:30:38.991Z,8.10
2022-12-25T08:33:07.241Z,8.10
2022-12-25T08:35:35.959Z,8.10
2022-12-25T08:38:05.403Z,8.10
2022-12-25T08:40:33.573Z,8.10
2022-12-25T08:43:01.648Z,8.20
2022-12-25T08:45:34.728Z,8.10
2022-12-25T08:48:03.139Z,8.10
2022-12-25T08:50:31.197Z,8.10
2022-12-25T08:52:59.288Z,8.10
2022-12-25T08:55:28.752Z,8.20
2022-12-25T08:57:56.856Z,8.20
2022-12-25T09:00:24.905Z,8.20
2022-12-25T09:02:53.043Z,8.20
2022-12-25T09:05:21.042Z,8.20
2022-12-25T09:07:49.180Z,8.20
2022-12-25T09:10:17.339Z,8.30
2022-12-25T09:12:46.756Z,8.20
2022-12-25T09:15:14.733Z,8.30
2022-12-25T09:17:42.679Z,8.30
2022-12-25T09:20:11.048Z,8.30
2022-12-25T09:22:39.002Z,8.30
2022-12-25T09:25:07.413Z,8.30
2022-12-25T09:27:35.339Z,8.30
2022-12-25T09:30:05.554Z,8.40
2022-12-25T09:32:33.602Z,8.40
2022-12-25T09:35:01.527Z,8.40
2022-12-25T09:37:29.606Z,8.50
2022-12-25T09:39:57.594Z,8.50
2022-12-25T09:42:28.563Z,8.60
2022-12-25T09:45:00.263Z,8.60
2022-12-25T09:47:32.227Z,8.70
2022-12-25T09:50:05.139Z,8.80
2022-12-25T09:52:37.903Z,8.90
2022-12-25T09:55:18.100Z,9.00
2022-12-25T09:57:52.440Z,9.10
2022-12-25T10:00:23.300Z,9.20
2022-12-25T10:03:12.712Z,9.20
2022-12-25T10:06:14.281Z,9.30
2022-12-25T10:09:17.885Z,9.40
2022-12-25T10:11:58.548Z,9.60
2022-12-25T10:14:35.141Z,9.70
2022-12-25T10:17:16.504Z,9.80
2022-12-25T10:19:50.621Z,9.90
2022-12-25T10:22:24.787Z,10.00
2022-12-25T10:24:55.478Z,10.20
2022-12-25T10:27:32.399Z,10.30
2022-12-25T10:30:00.876Z,10.40
2022-12-25T10:32:29.196Z,10.60
2022-12-25T10:34:58.665Z,10.60
2022-12-25T10:37:26.701Z,10.80
2022-12-25T10:39:54.585Z,10.90
2022-12-25T10:42:31.869Z,11.00
2022-12-25T10:45:01.739Z,11.10
2022-12-25T10:47:32.084Z,11.20
2022-12-25T10:50:02.475Z,11.30
2022-12-25T10:52:30.707Z,11.30
2022-12-25T10:54:58.614Z,11.40
2022-12-25T10:57:28.087Z,11.40
2022-12-25T10:59:57.541Z,11.40
2022-12-25T11:02:28.681Z,11.50
2022-12-25T11:05:03.804Z,11.60
2022-12-25T11:07:33.089Z,11.70
2022-12-25T11:10:05.585Z,11.70
2022-12-25T11:12:54.052Z,11.80
2022-12-25T11:15:37.732Z,11.80
2022-12-25T11:18:17.778Z,11.80
2022-12-25T11:20:51.853Z,11.80
2022-12-25T11:23:21.206Z,11.80
2022-12-25T11:25:57.169Z,11.90
2022-12-25T11:28:26.720Z,11.90
2022-12-25T11:31:00.312Z,11.90
2022-12-25T11:33:33.130Z,12.00
2022-12-25T11:36:04.932Z,12.00
2022-12-25T11:38:33.026Z,12.10
2022-12-25T11:41:04.158Z,12.10
2022-12-25T11:43:36.953Z,12.10
2022-12-25T11:46:13.054Z,12.20
2022-12-25T11:48:45.303Z,12.20
2022-12-25T11:51:16.553Z,12.20
2022-12-25T11:53:49.658Z,12.30
2022-12-25T11:56:21.044Z,12.30
2022-12-25T11:58:51.811Z,12.40
2022-12-25T12:01:30.456Z,12.30
2022-12-25T12:04:00.808Z,12.30
2022-12-25T12:06:36.122Z,12.30
2022-12-25T12:09:18.552Z,12.30
2022-12-25T12:11:53.817Z,12.30
2022-12-25T12:14:37.567Z,12.30
2022-12-25T12:17:05.736Z,12.30
2022-12-25T12:19:34.680Z,12.40
2022-12-25T12:22:05.855Z,12.40
2022-12-25T12:24:38.468Z,12.30
2022-12-25T12:27:07.992Z,12.40
2022-12-25T12:29:40.817Z,12.30
2022-12-25T12:32:22.031Z,12.30
2022-12-25T12:34:50.696Z,12.30
2022-12-25T12:37:25.326Z,12.30
2022-12-25T12:39:55.431Z,12.30
2022-12-25T12:42:27.109Z,12.20
2022-12-25T12:44:56.953Z,12.20
2022-12-25T12:47:31.053Z,12.10
2022-12-25T12:50:00.348Z,12.10
2022-12-25T12:52:35.418Z,12.10
2022-12-25T12:55:06.382Z,12.10
2022-12-25T12:57:39.580Z,12.20
2022-12-25T13:00:16.701Z,12.20
2022-12-25T13:03:05.800Z,12.20
2022-12-25T13:05:40.119Z,12.20
2022-12-25T13:08:22.387Z,12.20
2022-12-25T13:10:52.513Z,12.20
2022-12-25T13:13:25.446Z,12.20
2022-12-25T13:15:53.673Z,12.30
2022-12-25T13:18:22.091Z,12.30
2022-12-25T13:20:56.128Z,12.20
2022-12-25T13:23:28.790Z,12.30
2022-12-25T13:25:57.545Z,12.30
2022-12-25T13:28:29.776Z,12.30
2022-12-25T13:31:07.395Z,12.30
2022-12-25T13:33:36.188Z,12.30
2022-12-25T13:36:05.122Z,12.30
2022-12-25T13:38:34.531Z,12.30
2022-12-25T13:41:20.385Z,12.20
2022-12-25T13:43:49.760Z,12.20
2022-12-25T13:46:17.800Z,12.10
2022-12-25T13:48:45.842Z,12.10
2022-12-25T13:51:16.961Z,12.00
2022-12-25T13:53:46.334Z,12.00
2022-12-25T13:56:16.775Z,11.90
2022-12-25T13:58:48.049Z,11.90
2022-12-25T14:01:18.507Z,11.90
2022-12-25T14:03:48.809Z,11.80
2022-12-25T14:06:20.004Z,11.70
2022-12-25T14:08:50.764Z,11.70
2022-12-25T14:11:21.571Z,11.60
2022-12-25T14:13:52.285Z,11.60
2022-12-25T14:16:21.797Z,11.50
2022-12-25T14:18:54.722Z,11.40
2022-12-25T14:21:31.608Z,11.40
2022-12-25T14:24:01.578Z,11.30
2022-12-25T14:26:31.541Z,11.20
2022-12-25T14:29:15.570Z,11.20
2022-12-25T14:31:46.451Z,11.10
2022-12-25T14:34:19.539Z,11.10
2022-12-25T14:36:48.163Z,11.00
2022-12-25T14:39:34.713Z,11.00
2022-12-25T14:42:12.575Z,10.90
2022-12-25T14:44:41.972Z,10.80
2022-12-25T14:47:29.436Z,10.80
2022-12-25T14:50:27.482Z,10.70
2022-12-25T14:53:21.752Z,10.60
2022-12-25T14:55:59.343Z,10.60
2022-12-25T14:58:31.200Z,10.60
2022-12-25T15:01:01.358Z,10.50
2022-12-25T15:03:31.803Z,10.40
2022-12-25T15:06:01.754Z,10.30
2022-12-25T15:08:31.267Z,10.30
2022-12-25T15:11:03.078Z,10.30
2022-12-25T15:13:32.198Z,10.20
2022-12-25T15:16:04.544Z,10.20
2022-12-25T15:18:37.632Z,10.10
2022-12-25T15:21:05.965Z,10.10
2022-12-25T15:23:36.949Z,10.10
2022-12-25T15:26:09.952Z,10.00
2022-12-25T15:28:38.046Z,10.00
2022-12-25T15:31:16.133Z,9.90
2022-12-25T15:33:44.511Z,9.90
2022-12-25T15:36:12.732Z,9.80
2022-12-25T15:38:40.951Z,9.70
2022-12-25T15:41:36.658Z,9.70
2022-12-25T15:44:06.105Z,9.70
2022-12-25T15:46:34.697Z,9.70
2022-12-25T15:49:02.950Z,9.70
2022-12-25T15:51:31.362Z,9.60
2022-12-25T15:53:59.674Z,9.60
2022-12-25T15:56:30.253Z,9.60
2022-12-25T15:58:58.251Z,9.60
2022-12-25T16:01:26.367Z,9.60
2022-12-25T16:03:54.535Z,9.60
2022-12-25T16:06:22.521Z,9.50
2022-12-25T16:08:50.413Z,9.50
2022-12-25T16:11:18.371Z,9.40
2022-12-25T16:13:47.905Z,9.50
2022-12-25T16:16:16.168Z,9.40
2022-12-25T16:18:47.574Z,9.40
2022-12-25T16:21:18.303Z,9.30
2022-12-25T16:23:46.549Z,9.40
2022-12-25T16:26:14.584Z,9.30
2022-12-25T16:28:42.785Z,9.30
2022-12-25T16:31:12.898Z,9.30
2022-12-25T16:33:41.106Z,9.30
2022-12-25T16:36:09.906Z,9.30
2022-12-25T16:38:38.506Z,9.30
2022-12-25T16:41:06.732Z,9.30
2022-12-25T16:43:34.633Z,9.30
2022-12-25T16:46:02.636Z,9.30
2022-12-25T16:48:32.004Z,9.20
2022-12-25T16:50:59.972Z,9.30
2022-12-25T16:53:27.956Z,9.20
2022-12-25T16:56:06.573Z,9.20
2022-12-25T16:58:34.507Z,9.20
2022-12-25T17:01:07.438Z,9.20
2022-12-25T17:03:37.324Z,9.10
2022-12-25T17:06:13.316Z,9.10
2022-12-25T17:08:41.421Z,9.10
2022-12-25T17:11:09.843Z,9.10
2022-12-25T17:13:37.773Z,9.10
2022-12-25T17:16:14.516Z,9.10
2022-12-25T17:18:43.904Z,9.10
2022-12-25T17:21:11.881Z,9.00
2022-12-25T17:23:42.169Z,9.00
2022-12-25T17:26:10.297Z,9.00
2022-12-25T17:28:38.587Z,9.00
2022-12-25T17:31:08.798Z,9.00
2022-12-25T17:33:37.446Z,9.00
2022-12-25T17:36:09.033Z,8.90
2022-12-25T17:38:37.297Z,8.90
2022-12-25T17:41:07.728Z,8.80
2022-12-25T17:43:37.513Z,8.90
2022-12-25T17:46:07.025Z,8.80
2022-12-25T17:48:36.359Z,8.80
2022-12-25T17:51:07.218Z,8.80
2022-12-25T17:53:36.231Z,8.80
2022-12-25T17:56:04.411Z,8.70
2022-12-25T17:58:32.690Z,8.70
2022-12-25T18:01:06.607Z,8.70
2022-12-25T18:03:36.561Z,8.70
2022-12-25T18:06:06.611Z,8.70
2022-12-25T18:08:39.293Z,8.60
2022-12-25T18:11:10.077Z,8.60
2022-12-25T18:13:40.484Z,8.70
2022-12-25T18:16:09.233Z,8.80
2022-12-25T18:18:38.316Z,8.80
2022-12-25T18:21:08.754Z,8.70
2022-12-25T18:23:37.252Z,8.80
2022-12-25T18:26:06.993Z,8.80
2022-12-25T18:28:35.529Z,8.80
2022-12-25T18:31:04.487Z,8.80
2022-12-25T18:33:32.742Z,8.70
2022-12-25T18:36:02.408Z,8.80
2022-12-25T18:38:31.865Z,8.80
2022-12-25T18:40:59.927Z,8.90
2022-12-25T18:43:51.541Z,8.80
2022-12-25T18:46:17.522Z,8.90
2022-12-25T18:48:46.041Z,8.90
2022-12-25T18:51:14.505Z,8.90
2022-12-25T18:53:46.478Z,8.90
2022-12-25T18:56:17.261Z,8.90
2022-12-25T18:58:45.736Z,8.90
2022-12-25T19:01:17.164Z,8.90
2022-12-25T19:03:46.386Z,8.90
2022-12-25T19:06:19.317Z,9.00
2022-12-25T19:08:48.877Z,8.90
2022-12-25T19:11:16.975Z,8.90
2022-12-25T19:13:45.582Z,8.80
2022-12-25T19:16:13.771Z,8.80
2022-12-25T19:18:43.245Z,8.90
2022-12-25T19:21:11.810Z,8.80
2022-12-25T19:23:40.263Z,8.90
2022-12-25T19:26:11.702Z,8.90
2022-12-25T19:28:40.302Z,8.90
2022-12-25T19:31:09.561Z,8.90
2022-12-25T19:33:39.345Z,8.90
2022-12-25T19:36:09.601Z,8.90
2022-12-25T19:38:38.179Z,8.90
2022-12-25T19:41:09.062Z,9.00
2022-12-25T19:43:39.454Z,9.00
2022-12-25T19:46:08.924Z,9.00
2022-12-25T19:48:37.293Z,9.00
2022-12-25T19:51:05.436Z,9.10
2022-12-25T19:53:33.456Z,9.10
2022-12-25T19:56:03.757Z,9.20
2022-12-25T19:58:33.266Z,9.20
2022-12-25T20:01:03.061Z,9.20
2022-12-25T20:03:31.209Z,9.20
2022-12-25T20:05:59.349Z,9.30
2022-12-25T20:08:27.571Z,9.30
2022-12-25T20:10:55.676Z,9.30
2022-12-25T20:13:23.670Z,9.30
2022-12-25T20:15:53.090Z,9.40
2022-12-25T20:18:21.067Z,9.30
2022-12-25T20:20:49.123Z,9.30
2022-12-25T20:23:17.254Z,9.30
2022-12-25T20:25:45.307Z,9.30
2022-12-25T20:28:13.291Z,9.30
2022-12-25T20:30:41.337Z,9.30
2022-12-25T20:33:10.711Z,9.40
2022-12-25T20:35:38.733Z,9.40
2022-12-25T20:38:06.685Z,9.40
2022-12-25T20:40:47.019Z,9.40
2022-12-25T20:43:22.535Z,9.40
2022-12-25T20:45:52.712Z,9.40
2022-12-25T20:48:22.201Z,9.40
2022-12-25T20:50:50.615Z,9.40
2022-12-25T20:53:19.158Z,9.40
2022-12-25T20:55:47.608Z,9.40
2022-12-25T20:58:16.023Z,9.30
2022-12-25T21:00:45.730Z,9.30
2022-12-25T21:03:13.837Z,9.30
2022-12-25T21:05:50.699Z,9.30
2022-12-25T21:08:18.912Z,9.30
2022-12-25T21:10:50.387Z,9.20
2022-12-25T21:13:18.824Z,9.30
2022-12-25T21:15:47.635Z,9.30
2022-12-25T21:18:16.166Z,9.30
2022-12-25T21:20:48.112Z,9.30
2022-12-25T21:23:16.527Z,9.40
2022-12-25T21:25:46.694Z,9.40
2022-12-25T21:28:14.887Z,9.40
2022-12-25T21:30:43.734Z,9.30
2022-12-25T21:33:30.554Z,9.20
2022-12-25T21:36:05.992Z,9.20
2022-12-25T21:38:34.192Z,9.00
2022-12-25T21:41:06.916Z,9.00
2022-12-25T21:43:35.336Z,9.00
2022-12-25T21:46:05.395Z,8.90
2022-12-25T21:48:34.816Z,8.90
2022-12-25T21:51:23.356Z,8.90
2022-12-25T21:53:51.419Z,9.10
2022-12-25T21:56:19.517Z,9.20
2022-12-25T21:58:48.159Z,9.40
2022-12-25T22:01:17.468Z,9.40
2022-12-25T22:03:45.992Z,9.60
2022-12-25T22:06:33.169Z,9.60
2022-12-25T22:09:01.539Z,9.60
2022-12-25T22:11:46.936Z,9.80
2022-12-25T22:14:52.928Z,9.80
2022-12-25T22:17:42.269Z,9.90
2022-12-25T22:20:16.246Z,10.00
2022-12-25T22:22:45.742Z,9.90
2022-12-25T22:25:14.250Z,10.00
2022-12-25T22:27:44.171Z,10.00
2022-12-25T22:30:14.576Z,10.00
2022-12-25T22:32:42.805Z,9.90
2022-12-25T22:35:12.337Z,9.90
2022-12-25T22:37:41.149Z,10.00
2022-12-25T22:40:12.454Z,10.00
2022-12-25T22:42:40.557Z,10.00
2022-12-25T22:45:10.679Z,10.00
2022-12-25T22:47:38.900Z,10.00
2022-12-25T22:50:08.054Z,9.90
2022-12-25T22:52:39.500Z,10.00
2022-12-25T22:55:10.701Z,10.00
2022-12-25T22:57:38.891Z,9.90
2022-12-25T23:00:09.191Z,9.90
2022-12-25T23:02:37.512Z,9.90
2022-12-25T23:05:06.215Z,9.90
2022-12-25T23:07:34.205Z,9.80
2022-12-25T23:10:02.212Z,9.70
2022-12-25T23:12:49.172Z,9.70
2022-12-25T23:15:17.375Z,9.70
2022-12-25T23:18:02.725Z,9.70
2022-12-25T23:20:48.406Z,9.70
2022-12-25T23:23:35.154Z,9.70
2022-12-25T23:26:09.731Z,9.80
2022-12-25T23:29:00.358Z,9.80
2022-12-25T23:31:31.695Z,9.80
2022-12-25T23:33:59.829Z,9.70
2022-12-25T23:36:27.946Z,9.70
2022-12-25T23:38:55.974Z,9.70
2022-12-25T23:41:24.055Z,9.70
2022-12-25T23:43:53.501Z,9.60
2022-12-25T23:46:21.701Z,9.60
2022-12-25T23:48:49.740Z,9.60
2022-12-25T23:51:17.775Z,9.60
2022-12-25T23:53:45.855Z,9.60
2022-12-25T23:56:14.754Z,9.60
2022-12-25T23:58:45.206Z,9.60
